SKBG/BGA METAR and TAF weather

Enter ICAO airport designator
Station Type Date Time Source
SKBG METAR 2021/05/12 01:00 UTC NOAA

SKBG 120100Z 04003KT 9999 SCT010 BKN070 22/22 Q1014 RMK A2996


Station Type Date Time Source
SKBG Decoded METAR 2021/05/12 01:00 UTC NOAA

Bucaramanga / Palonegro, Colombia (SKBG) 07-06N 073-12W
May 11, 2021 - 09:00 PM EDT / 2021.05.12 0100 UTC
Wind: from the NE (040 degrees) at 3 MPH (3 KT):0
Visibility: greater than 7 mile(s):0
Sky conditions: mostly cloudy
Temperature: 71 F (22 C)
Dew Point: 71 F (22 C)
Relative Humidity: 100%
Pressure (altimeter): 29.94 in. Hg (1014 hPa)
ob: SKBG 120100Z 04003KT 9999 SCT010 BKN070 22/22 Q1014 RMK A2996
cycle: 1

Station Type Date Time Source
SKBG TAF 2021/05/11 18:30 UTC NOAA

TAF SKBG 111630Z 1118/1218 32008KT 9999 SCT015 SCT070
TEMPO 1120/1124 DZ SCT013TCU
BECMG 1201/1203 VRB02KT PROB40
TEMPO 1210/1212 5000 BCFG -DZ SCT010 TX27/1118Z TN19/1210Z

Example: see airport list